sensor_id;sensor_type;location;lat;lon;timestamp;pressure;altitude;pressure_sealevel;temperature;humidity
61814;BME280;57055;-35.296;149.168;2022-07-23T00:01:59;96093.43;;;6.99;66.21
61814;BME280;57055;-35.296;149.168;2022-07-23T00:04:29;96090.31;;;7.09;65.97
61814;BME280;57055;-35.296;149.168;2022-07-23T00:06:57;96090.01;;;6.97;66.03
61814;BME280;57055;-35.296;149.168;2022-07-23T00:09:26;96087.21;;;7.33;65.85
61814;BME280;57055;-35.296;149.168;2022-07-23T00:11:55;96080.69;;;7.27;65.96
61814;BME280;57055;-35.296;149.168;2022-07-23T00:14:24;96072.36;;;7.57;65.74
61814;BME280;57055;-35.296;149.168;2022-07-23T00:16:53;96069.61;;;7.40;65.69
61814;BME280;57055;-35.296;149.168;2022-07-23T00:19:21;96059.15;;;7.18;65.84
61814;BME280;57055;-35.296;149.168;2022-07-23T00:21:50;96059.11;;;7.53;65.98
61814;BME280;57055;-35.296;149.168;2022-07-23T00:24:19;96062.10;;;7.33;65.69
61814;BME280;57055;-35.296;149.168;2022-07-23T00:26:48;96068.17;;;7.59;65.48
61814;BME280;57055;-35.296;149.168;2022-07-23T00:29:16;96068.96;;;7.51;65.33
61814;BME280;57055;-35.296;149.168;2022-07-23T00:31:46;96068.12;;;7.74;64.55
61814;BME280;57055;-35.296;149.168;2022-07-23T00:34:16;96069.04;;;8.11;65.03
61814;BME280;57055;-35.296;149.168;2022-07-23T00:36:46;96060.06;;;8.06;64.68
61814;BME280;57055;-35.296;149.168;2022-07-23T00:39:14;96058.45;;;7.90;64.47
61814;BME280;57055;-35.296;149.168;2022-07-23T00:41:43;96058.57;;;8.07;64.29
61814;BME280;57055;-35.296;149.168;2022-07-23T00:44:22;96058.52;;;8.14;64.28
61814;BME280;57055;-35.296;149.168;2022-07-23T00:46:53;96060.87;;;8.32;63.77
61814;BME280;57055;-35.296;149.168;2022-07-23T00:49:23;96057.45;;;8.42;63.50
61814;BME280;57055;-35.296;149.168;2022-07-23T00:51:53;96051.91;;;8.51;63.28
61814;BME280;57055;-35.296;149.168;2022-07-23T00:54:24;96043.39;;;8.65;62.72
61814;BME280;57055;-35.296;149.168;2022-07-23T00:56:54;96035.72;;;8.72;61.90
61814;BME280;57055;-35.296;149.168;2022-07-23T00:59:24;96028.35;;;9.00;61.52
61814;BME280;57055;-35.296;149.168;2022-07-23T01:01:53;96026.16;;;8.97;60.62
61814;BME280;57055;-35.296;149.168;2022-07-23T01:04:22;96019.84;;;8.92;59.86
61814;BME280;57055;-35.296;149.168;2022-07-23T01:06:50;96016.33;;;8.82;60.37
61814;BME280;57055;-35.296;149.168;2022-07-23T01:09:20;96010.48;;;9.06;60.85
61814;BME280;57055;-35.296;149.168;2022-07-23T01:11:51;95997.30;;;9.05;60.33
61814;BME280;57055;-35.296;149.168;2022-07-23T01:14:23;95981.65;;;9.37;59.78
61814;BME280;57055;-35.296;149.168;2022-07-23T01:16:51;95977.74;;;9.42;59.65
61814;BME280;57055;-35.296;149.168;2022-07-23T01:19:21;95969.93;;;9.32;58.17
61814;BME280;57055;-35.296;149.168;2022-07-23T01:21:52;95971.57;;;9.44;58.29
61814;BME280;57055;-35.296;149.168;2022-07-23T01:24:22;95971.65;;;9.50;57.82
61814;BME280;57055;-35.296;149.168;2022-07-23T01:26:51;95965.34;;;9.62;57.58
61814;BME280;57055;-35.296;149.168;2022-07-23T01:29:21;95958.25;;;9.68;57.19
61814;BME280;57055;-35.296;149.168;2022-07-23T01:31:51;95954.88;;;9.49;55.96
61814;BME280;57055;-35.296;149.168;2022-07-23T01:34:20;95956.79;;;9.59;56.34
61814;BME280;57055;-35.296;149.168;2022-07-23T01:36:50;95954.94;;;9.67;55.90
61814;BME280;57055;-35.296;149.168;2022-07-23T01:39:18;95960.68;;;10.04;54.72
61814;BME280;57055;-35.296;149.168;2022-07-23T01:41:48;95953.84;;;9.95;54.12
61814;BME280;57055;-35.296;149.168;2022-07-23T01:44:17;95948.28;;;9.95;54.16
61814;BME280;57055;-35.296;149.168;2022-07-23T01:46:46;95939.12;;;9.91;53.89
61814;BME280;57055;-35.296;149.168;2022-07-23T01:49:16;95937.23;;;10.12;53.92
61814;BME280;57055;-35.296;149.168;2022-07-23T01:51:45;95933.19;;;10.37;52.84
61814;BME280;57055;-35.296;149.168;2022-07-23T01:54:14;95927.98;;;10.61;52.68
61814;BME280;57055;-35.296;149.168;2022-07-23T01:56:43;95920.67;;;10.42;52.79
61814;BME280;57055;-35.296;149.168;2022-07-23T01:59:11;95910.16;;;10.55;52.25
61814;BME280;57055;-35.296;149.168;2022-07-23T02:01:40;95896.94;;;10.65;52.15
61814;BME280;57055;-35.296;149.168;2022-07-23T02:04:09;95891.31;;;10.71;51.09
61814;BME280;57055;-35.296;149.168;2022-07-23T02:06:38;95884.68;;;10.69;50.58
61814;BME280;57055;-35.296;149.168;2022-07-23T02:09:08;95887.84;;;10.40;51.22
61814;BME280;57055;-35.296;149.168;2022-07-23T02:11:38;95885.83;;;10.41;51.77
61814;BME280;57055;-35.296;149.168;2022-07-23T02:14:08;95886.67;;;10.40;51.47
61814;BME280;57055;-35.296;149.168;2022-07-23T02:16:38;95883.46;;;10.26;51.21
61814;BME280;57055;-35.296;149.168;2022-07-23T02:19:07;95877.60;;;10.07;51.50
61814;BME280;57055;-35.296;149.168;2022-07-23T02:21:36;95865.41;;;9.97;51.34
61814;BME280;57055;-35.296;149.168;2022-07-23T02:24:06;95852.27;;;10.03;51.55
61814;BME280;57055;-35.296;149.168;2022-07-23T02:26:35;95837.21;;;10.37;51.50
61814;BME280;57055;-35.296;149.168;2022-07-23T02:29:05;95833.29;;;10.75;50.51
61814;BME280;57055;-35.296;149.168;2022-07-23T02:31:34;95836.49;;;10.38;49.37
61814;BME280;57055;-35.296;149.168;2022-07-23T02:34:03;95845.62;;;10.44;49.41
61814;BME280;57055;-35.296;149.168;2022-07-23T02:36:33;95843.49;;;10.45;49.15
61814;BME280;57055;-35.296;149.168;2022-07-23T02:39:03;95836.30;;;10.85;49.90
61814;BME280;57055;-35.296;149.168;2022-07-23T02:41:32;95836.44;;;10.84;49.41
61814;BME280;57055;-35.296;149.168;2022-07-23T02:44:02;95844.46;;;11.11;48.92
61814;BME280;57055;-35.296;149.168;2022-07-23T02:46:31;95842.74;;;11.22;48.70
61814;BME280;57055;-35.296;149.168;2022-07-23T02:49:01;95835.38;;;10.80;48.78
61814;BME280;57055;-35.296;149.168;2022-07-23T02:51:30;95832.92;;;10.69;48.36
61814;BME280;57055;-35.296;149.168;2022-07-23T02:54:00;95823.50;;;10.84;48.51
61814;BME280;57055;-35.296;149.168;2022-07-23T02:56:29;95819.01;;;11.06;48.07
61814;BME280;57055;-35.296;149.168;2022-07-23T02:58:59;95816.04;;;11.02;48.21
61814;BME280;57055;-35.296;149.168;2022-07-23T03:01:28;95817.62;;;11.21;48.03
61814;BME280;57055;-35.296;149.168;2022-07-23T03:03:58;95820.15;;;11.01;48.31
61814;BME280;57055;-35.296;149.168;2022-07-23T03:06:27;95813.03;;;10.92;48.82
61814;BME280;57055;-35.296;149.168;2022-07-23T03:08:57;95801.38;;;10.67;49.73
61814;BME280;57055;-35.296;149.168;2022-07-23T03:11:28;95792.88;;;10.62;50.00
61814;BME280;57055;-35.296;149.168;2022-07-23T03:13:57;95793.69;;;10.55;49.91
61814;BME280;57055;-35.296;149.168;2022-07-23T03:16:26;95783.66;;;10.87;49.91
61814;BME280;57055;-35.296;149.168;2022-07-23T03:18:56;95781.34;;;10.35;50.05
61814;BME280;57055;-35.296;149.168;2022-07-23T03:21:25;95781.89;;;10.55;49.95
61814;BME280;57055;-35.296;149.168;2022-07-23T03:23:53;95785.35;;;10.57;50.15
61814;BME280;57055;-35.296;149.168;2022-07-23T03:26:23;95792.46;;;10.76;50.16
61814;BME280;57055;-35.296;149.168;2022-07-23T03:28:51;95795.17;;;10.75;49.56
61814;BME280;57055;-35.296;149.168;2022-07-23T03:31:20;95800.15;;;10.82;49.80
61814;BME280;57055;-35.296;149.168;2022-07-23T03:33:50;95803.12;;;11.00;49.45
61814;BME280;57055;-35.296;149.168;2022-07-23T03:36:18;95798.96;;;11.03;48.84
61814;BME280;57055;-35.296;149.168;2022-07-23T03:38:48;95799.74;;;10.88;49.28
61814;BME280;57055;-35.296;149.168;2022-07-23T03:41:17;95798.32;;;10.50;49.29
61814;BME280;57055;-35.296;149.168;2022-07-23T03:43:45;95798.42;;;10.61;49.44
61814;BME280;57055;-35.296;149.168;2022-07-23T03:46:15;95802.07;;;10.89;49.68
61814;BME280;57055;-35.296;149.168;2022-07-23T03:48:44;95801.56;;;11.03;49.84
61814;BME280;57055;-35.296;149.168;2022-07-23T03:51:14;95799.46;;;10.95;49.89
61814;BME280;57055;-35.296;149.168;2022-07-23T03:53:43;95794.46;;;10.75;50.13
61814;BME280;57055;-35.296;149.168;2022-07-23T03:56:13;95790.83;;;10.64;50.95
61814;BME280;57055;-35.296;149.168;2022-07-23T03:58:42;95786.34;;;10.88;51.55
61814;BME280;57055;-35.296;149.168;2022-07-23T04:01:11;95780.87;;;10.70;51.46
61814;BME280;57055;-35.296;149.168;2022-07-23T04:03:41;95776.11;;;10.85;51.00
61814;BME280;57055;-35.296;149.168;2022-07-23T04:06:10;95772.99;;;10.86;51.21
61814;BME280;57055;-35.296;149.168;2022-07-23T04:08:40;95771.14;;;10.78;50.71
61814;BME280;57055;-35.296;149.168;2022-07-23T04:11:09;95771.39;;;10.66;50.44
61814;BME280;57055;-35.296;149.168;2022-07-23T04:13:39;95772.38;;;10.92;50.14
61814;BME280;57055;-35.296;149.168;2022-07-23T04:16:09;95764.27;;;10.98;49.51
61814;BME280;57055;-35.296;149.168;2022-07-23T04:18:39;95758.60;;;10.78;49.19
61814;BME280;57055;-35.296;149.168;2022-07-23T04:21:08;95751.92;;;11.07;49.21
61814;BME280;57055;-35.296;149.168;2022-07-23T04:23:38;95752.13;;;10.77;49.64
61814;BME280;57055;-35.296;149.168;2022-07-23T04:26:07;95759.02;;;10.98;49.79
61814;BME280;57055;-35.296;149.168;2022-07-23T04:28:36;95766.41;;;10.92;49.78
61814;BME280;57055;-35.296;149.168;2022-07-23T04:31:06;95767.81;;;10.97;49.97
61814;BME280;57055;-35.296;149.168;2022-07-23T04:33:35;95766.97;;;11.07;50.09
61814;BME280;57055;-35.296;149.168;2022-07-23T04:36:05;95772.49;;;10.72;50.71
61814;BME280;57055;-35.296;149.168;2022-07-23T04:38:34;95771.37;;;10.88;51.09
61814;BME280;57055;-35.296;149.168;2022-07-23T04:41:04;95768.79;;;10.78;50.65
61814;BME280;57055;-35.296;149.168;2022-07-23T04:43:33;95764.95;;;10.78;50.86
61814;BME280;57055;-35.296;149.168;2022-07-23T04:46:03;95760.94;;;10.76;50.63
61814;BME280;57055;-35.296;149.168;2022-07-23T04:48:32;95751.65;;;10.78;50.40
61814;BME280;57055;-35.296;149.168;2022-07-23T04:51:02;95746.67;;;10.87;50.75
61814;BME280;57055;-35.296;149.168;2022-07-23T04:53:31;95739.15;;;10.58;50.90
61814;BME280;57055;-35.296;149.168;2022-07-23T04:56:01;95736.57;;;10.50;51.13
61814;BME280;57055;-35.296;149.168;2022-07-23T04:58:31;95735.44;;;10.46;51.18
61814;BME280;57055;-35.296;149.168;2022-07-23T05:01:00;95735.82;;;10.67;50.97
61814;BME280;57055;-35.296;149.168;2022-07-23T05:03:30;95736.67;;;10.44;51.16
61814;BME280;57055;-35.296;149.168;2022-07-23T05:05:59;95732.90;;;10.38;51.44
61814;BME280;57055;-35.296;149.168;2022-07-23T05:08:29;95734.44;;;10.36;51.80
61814;BME280;57055;-35.296;149.168;2022-07-23T05:10:58;95732.29;;;10.49;51.67
61814;BME280;57055;-35.296;149.168;2022-07-23T05:13:28;95730.11;;;10.76;51.38
61814;BME280;57055;-35.296;149.168;2022-07-23T05:15:58;95727.38;;;10.19;51.66
61814;BME280;57055;-35.296;149.168;2022-07-23T05:18:28;95726.29;;;10.43;51.91
61814;BME280;57055;-35.296;149.168;2022-07-23T05:20:57;95726.42;;;10.49;52.07
61814;BME280;57055;-35.296;149.168;2022-07-23T05:23:27;95724.92;;;10.51;52.19
61814;BME280;57055;-35.296;149.168;2022-07-23T05:25:55;95727.64;;;10.50;52.24
61814;BME280;57055;-35.296;149.168;2022-07-23T05:28:24;95736.18;;;10.50;52.78
61814;BME280;57055;-35.296;149.168;2022-07-23T05:30:53;95733.43;;;10.63;52.59
61814;BME280;57055;-35.296;149.168;2022-07-23T05:33:22;95737.61;;;10.59;53.18
61814;BME280;57055;-35.296;149.168;2022-07-23T05:35:51;95736.55;;;10.37;53.43
61814;BME280;57055;-35.296;149.168;2022-07-23T05:38:20;95734.51;;;10.40;53.26
61814;BME280;57055;-35.296;149.168;2022-07-23T05:40:49;95729.44;;;10.40;53.01
61814;BME280;57055;-35.296;149.168;2022-07-23T05:43:18;95724.23;;;10.56;53.09
61814;BME280;57055;-35.296;149.168;2022-07-23T05:45:47;95720.23;;;10.54;52.83
61814;BME280;57055;-35.296;149.168;2022-07-23T05:48:16;95714.59;;;10.20;53.02
61814;BME280;57055;-35.296;149.168;2022-07-23T05:50:45;95716.09;;;10.27;52.91
61814;BME280;57055;-35.296;149.168;2022-07-23T05:53:15;95710.60;;;10.40;53.48
61814;BME280;57055;-35.296;149.168;2022-07-23T05:55:44;95706.53;;;10.37;53.58
61814;BME280;57055;-35.296;149.168;2022-07-23T05:58:13;95703.25;;;10.07;53.95
61814;BME280;57055;-35.296;149.168;2022-07-23T06:00:42;95699.93;;;10.20;54.36
61814;BME280;57055;-35.296;149.168;2022-07-23T06:03:12;95692.85;;;10.18;54.62
61814;BME280;57055;-35.296;149.168;2022-07-23T06:05:40;95692.02;;;10.14;54.96
61814;BME280;57055;-35.296;149.168;2022-07-23T06:08:09;95693.38;;;10.11;54.99
61814;BME280;57055;-35.296;149.168;2022-07-23T06:10:38;95695.05;;;10.30;55.09
61814;BME280;57055;-35.296;149.168;2022-07-23T06:13:07;95693.82;;;10.30;55.03
61814;BME280;57055;-35.296;149.168;2022-07-23T06:15:35;95699.15;;;9.86;54.71
61814;BME280;57055;-35.296;149.168;2022-07-23T06:18:05;95701.12;;;9.93;54.20
61814;BME280;57055;-35.296;149.168;2022-07-23T06:20:34;95696.34;;;10.10;54.60
61814;BME280;57055;-35.296;149.168;2022-07-23T06:23:04;95689.62;;;10.10;54.47
61814;BME280;57055;-35.296;149.168;2022-07-23T06:25:34;95687.90;;;10.36;54.73
61814;BME280;57055;-35.296;149.168;2022-07-23T06:28:03;95692.08;;;10.29;54.89
61814;BME280;57055;-35.296;149.168;2022-07-23T06:30:33;95696.75;;;10.02;54.62
61814;BME280;57055;-35.296;149.168;2022-07-23T06:33:02;95703.86;;;10.04;54.38
61814;BME280;57055;-35.296;149.168;2022-07-23T06:35:32;95702.16;;;10.22;54.54
61814;BME280;57055;-35.296;149.168;2022-07-23T06:38:01;95703.73;;;10.08;54.78
61814;BME280;57055;-35.296;149.168;2022-07-23T06:40:30;95699.49;;;10.09;54.75
61814;BME280;57055;-35.296;149.168;2022-07-23T06:42:59;95698.86;;;10.01;54.98
61814;BME280;57055;-35.296;149.168;2022-07-23T06:45:28;95698.83;;;9.63;55.32
61814;BME280;57055;-35.296;149.168;2022-07-23T06:47:58;95695.57;;;9.80;55.65
61814;BME280;57055;-35.296;149.168;2022-07-23T06:50:27;95691.76;;;9.96;56.00
61814;BME280;57055;-35.296;149.168;2022-07-23T06:52:56;95692.29;;;9.60;56.56
61814;BME280;57055;-35.296;149.168;2022-07-23T06:55:25;95692.76;;;9.68;56.84
61814;BME280;57055;-35.296;149.168;2022-07-23T06:57:54;95698.22;;;9.30;57.31
61814;BME280;57055;-35.296;149.168;2022-07-23T07:00:23;95702.85;;;9.39;57.49
61814;BME280;57055;-35.296;149.168;2022-07-23T07:02:54;95702.71;;;9.57;57.86
61814;BME280;57055;-35.296;149.168;2022-07-23T07:05:23;95701.55;;;9.22;58.43
61814;BME280;57055;-35.296;149.168;2022-07-23T07:07:53;95702.80;;;9.13;58.67
61814;BME280;57055;-35.296;149.168;2022-07-23T07:10:23;95703.35;;;8.91;58.44
61814;BME280;57055;-35.296;149.168;2022-07-23T07:12:52;95702.22;;;9.25;58.84
61814;BME280;57055;-35.296;149.168;2022-07-23T07:15:21;95695.70;;;8.91;59.01
61814;BME280;57055;-35.296;149.168;2022-07-23T07:17:50;95699.08;;;8.91;58.84
61814;BME280;57055;-35.296;149.168;2022-07-23T07:20:19;95707.09;;;9.09;59.00
61814;BME280;57055;-35.296;149.168;2022-07-23T07:22:49;95711.00;;;9.09;59.11
61814;BME280;57055;-35.296;149.168;2022-07-23T07:25:18;95703.73;;;8.80;59.52
61814;BME280;57055;-35.296;149.168;2022-07-23T07:27:47;95699.88;;;8.70;59.74
61814;BME280;57055;-35.296;149.168;2022-07-23T07:30:17;95703.56;;;8.53;59.75
61814;BME280;57055;-35.296;149.168;2022-07-23T07:32:46;95707.60;;;8.79;59.76
61814;BME280;57055;-35.296;149.168;2022-07-23T07:35:16;95708.95;;;8.72;59.91
61814;BME280;57055;-35.296;149.168;2022-07-23T07:37:44;95706.43;;;8.68;60.15
61814;BME280;57055;-35.296;149.168;2022-07-23T07:40:13;95703.40;;;8.32;60.27
61814;BME280;57055;-35.296;149.168;2022-07-23T07:42:46;95704.33;;;8.30;59.94
61814;BME280;57055;-35.296;149.168;2022-07-23T07:45:16;95703.57;;;8.48;59.91
61814;BME280;57055;-35.296;149.168;2022-07-23T07:47:45;95699.31;;;8.45;59.85
61814;BME280;57055;-35.296;149.168;2022-07-23T07:50:14;95697.60;;;8.39;60.01
61814;BME280;57055;-35.296;149.168;2022-07-23T07:52:44;95698.17;;;8.24;60.30
61814;BME280;57055;-35.296;149.168;2022-07-23T07:55:13;95699.39;;;8.21;60.42
61814;BME280;57055;-35.296;149.168;2022-07-23T07:57:43;95703.71;;;8.24;60.40
61814;BME280;57055;-35.296;149.168;2022-07-23T08:00:14;95711.14;;;8.23;60.50
61814;BME280;57055;-35.296;149.168;2022-07-23T08:02:44;95716.77;;;8.40;60.77
61814;BME280;57055;-35.296;149.168;2022-07-23T08:05:14;95724.26;;;8.04;60.84
61814;BME280;57055;-35.296;149.168;2022-07-23T08:07:44;95719.79;;;8.30;60.79
61814;BME280;57055;-35.296;149.168;2022-07-23T08:10:12;95718.36;;;7.96;60.92
61814;BME280;57055;-35.296;149.168;2022-07-23T08:12:43;95726.85;;;7.92;60.93
61814;BME280;57055;-35.296;149.168;2022-07-23T08:15:14;95732.46;;;7.98;60.81
61814;BME280;57055;-35.296;149.168;2022-07-23T08:17:44;95735.25;;;7.98;60.90
61814;BME280;57055;-35.296;149.168;2022-07-23T08:20:17;95733.79;;;7.91;61.06
61814;BME280;57055;-35.296;149.168;2022-07-23T08:22:49;95731.83;;;7.79;61.09
61814;BME280;57055;-35.296;149.168;2022-07-23T08:25:22;95736.74;;;7.72;61.11
61814;BME280;57055;-35.296;149.168;2022-07-23T08:27:52;95737.36;;;7.74;61.13
61814;BME280;57055;-35.296;149.168;2022-07-23T08:30:22;95740.94;;;7.90;61.33
61814;BME280;57055;-35.296;149.168;2022-07-23T08:32:54;95745.87;;;7.87;61.43
61814;BME280;57055;-35.296;149.168;2022-07-23T08:35:26;95748.33;;;8.01;61.08
61814;BME280;57055;-35.296;149.168;2022-07-23T08:37:55;95755.34;;;7.78;61.04
61814;BME280;57055;-35.296;149.168;2022-07-23T08:40:27;95757.07;;;7.90;61.20
61814;BME280;57055;-35.296;149.168;2022-07-23T08:42:57;95760.54;;;7.64;61.23
61814;BME280;57055;-35.296;149.168;2022-07-23T08:45:30;95754.18;;;7.78;61.55
61814;BME280;57055;-35.296;149.168;2022-07-23T08:47:59;95744.36;;;7.95;61.53
61814;BME280;57055;-35.296;149.168;2022-07-23T08:50:29;95742.80;;;7.65;61.75
61814;BME280;57055;-35.296;149.168;2022-07-23T08:53:00;95747.47;;;7.89;61.67
61814;BME280;57055;-35.296;149.168;2022-07-23T08:55:30;95749.22;;;7.91;61.64
61814;BME280;57055;-35.296;149.168;2022-07-23T08:58:00;95748.73;;;7.88;61.83
61814;BME280;57055;-35.296;149.168;2022-07-23T09:00:30;95743.86;;;7.88;61.89
61814;BME280;57055;-35.296;149.168;2022-07-23T09:03:00;95739.64;;;7.63;62.00
61814;BME280;57055;-35.296;149.168;2022-07-23T09:05:29;95738.46;;;7.82;62.04
61814;BME280;57055;-35.296;149.168;2022-07-23T09:08:15;95743.04;;;7.76;62.15
61814;BME280;57055;-35.296;149.168;2022-07-23T09:10:50;95752.41;;;7.33;62.09
61814;BME280;57055;-35.296;149.168;2022-07-23T09:13:30;95747.59;;;7.71;62.00
61814;BME280;57055;-35.296;149.168;2022-07-23T09:16:03;95745.27;;;7.77;61.96
61814;BME280;57055;-35.296;149.168;2022-07-23T09:18:36;95746.77;;;7.75;61.93
61814;BME280;57055;-35.296;149.168;2022-07-23T09:21:39;95753.40;;;7.70;61.98
61814;BME280;57055;-35.296;149.168;2022-07-23T09:24:11;95759.96;;;7.58;62.27
61814;BME280;57055;-35.296;149.168;2022-07-23T09:26:43;95765.55;;;7.47;62.60
61814;BME280;57055;-35.296;149.168;2022-07-23T09:29:16;95770.64;;;7.55;62.45
61814;BME280;57055;-35.296;149.168;2022-07-23T09:31:54;95772.53;;;7.74;62.51
61814;BME280;57055;-35.296;149.168;2022-07-23T09:34:24;95773.50;;;7.72;62.29
61814;BME280;57055;-35.296;149.168;2022-07-23T09:36:56;95775.64;;;7.41;62.65
61814;BME280;57055;-35.296;149.168;2022-07-23T09:39:29;95781.16;;;7.58;62.98
61814;BME280;57055;-35.296;149.168;2022-07-23T09:42:12;95779.44;;;7.54;63.09
61814;BME280;57055;-35.296;149.168;2022-07-23T09:44:43;95781.50;;;7.44;62.87
61814;BME280;57055;-35.296;149.168;2022-07-23T09:47:12;95788.09;;;7.56;62.62
61814;BME280;57055;-35.296;149.168;2022-07-23T09:49:58;95791.83;;;7.62;62.53
61814;BME280;57055;-35.296;149.168;2022-07-23T09:52:31;95786.61;;;7.89;62.61
61814;BME280;57055;-35.296;149.168;2022-07-23T09:55:02;95782.28;;;7.92;62.59
61814;BME280;57055;-35.296;149.168;2022-07-23T09:57:34;95785.97;;;7.36;62.71
61814;BME280;57055;-35.296;149.168;2022-07-23T10:00:07;95784.33;;;7.80;62.87
61814;BME280;57055;-35.296;149.168;2022-07-23T10:02:37;95784.30;;;7.78;62.98
61814;BME280;57055;-35.296;149.168;2022-07-23T10:05:09;95791.82;;;7.52;62.94
61814;BME280;57055;-35.296;149.168;2022-07-23T10:07:41;95801.40;;;7.63;63.17
61814;BME280;57055;-35.296;149.168;2022-07-23T10:10:14;95805.68;;;7.54;63.41
61814;BME280;57055;-35.296;149.168;2022-07-23T10:12:45;95806.26;;;7.47;63.81
61814;BME280;57055;-35.296;149.168;2022-07-23T10:15:16;95807.24;;;7.46;63.86
61814;BME280;57055;-35.296;149.168;2022-07-23T10:17:49;95807.72;;;7.44;63.89
61814;BME280;57055;-35.296;149.168;2022-07-23T10:20:20;95807.48;;;7.33;64.14
61814;BME280;57055;-35.296;149.168;2022-07-23T10:23:04;95809.06;;;7.26;64.12
61814;BME280;57055;-35.296;149.168;2022-07-23T10:25:44;95809.26;;;7.05;64.00
61814;BME280;57055;-35.296;149.168;2022-07-23T10:28:30;95812.85;;;7.34;63.72
61814;BME280;57055;-35.296;149.168;2022-07-23T10:31:09;95810.20;;;7.29;63.28
61814;BME280;57055;-35.296;149.168;2022-07-23T10:33:55;95810.62;;;7.20;62.97
61814;BME280;57055;-35.296;149.168;2022-07-23T10:36:36;95808.36;;;6.93;63.04
61814;BME280;57055;-35.296;149.168;2022-07-23T10:39:17;95811.06;;;7.06;62.98
61814;BME280;57055;-35.296;149.168;2022-07-23T10:41:48;95811.12;;;7.00;63.20
61814;BME280;57055;-35.296;149.168;2022-07-23T10:44:19;95810.51;;;6.94;63.14
61814;BME280;57055;-35.296;149.168;2022-07-23T10:47:01;95808.77;;;6.90;63.33
61814;BME280;57055;-35.296;149.168;2022-07-23T10:49:33;95804.57;;;6.86;63.45
61814;BME280;57055;-35.296;149.168;2022-07-23T10:52:23;95803.23;;;6.81;63.57
61814;BME280;57055;-35.296;149.168;2022-07-23T10:54:56;95808.61;;;7.06;63.46
61814;BME280;57055;-35.296;149.168;2022-07-23T10:57:27;95802.97;;;6.77;63.73
61814;BME280;57055;-35.296;149.168;2022-07-23T11:00:30;95803.75;;;6.99;63.77
61814;BME280;57055;-35.296;149.168;2022-07-23T11:03:02;95809.73;;;6.82;63.60
61814;BME280;57055;-35.296;149.168;2022-07-23T11:05:44;95810.03;;;7.03;63.82
61814;BME280;57055;-35.296;149.168;2022-07-23T11:08:22;95802.43;;;6.83;63.95
61814;BME280;57055;-35.296;149.168;2022-07-23T11:10:54;95799.73;;;6.68;64.27
61814;BME280;57055;-35.296;149.168;2022-07-23T11:13:36;95797.82;;;6.91;64.24
61814;BME280;57055;-35.296;149.168;2022-07-23T11:16:14;95796.02;;;6.88;64.29
61814;BME280;57055;-35.296;149.168;2022-07-23T11:19:05;95794.44;;;6.80;64.58
61814;BME280;57055;-35.296;149.168;2022-07-23T11:21:51;95794.74;;;6.66;64.40
61814;BME280;57055;-35.296;149.168;2022-07-23T11:24:25;95794.31;;;6.94;64.25
61814;BME280;57055;-35.296;149.168;2022-07-23T11:26:58;95792.76;;;6.80;64.17
61814;BME280;57055;-35.296;149.168;2022-07-23T11:29:45;95792.47;;;6.87;63.93
61814;BME280;57055;-35.296;149.168;2022-07-23T11:32:37;95794.43;;;6.89;63.97
61814;BME280;57055;-35.296;149.168;2022-07-23T11:35:39;95802.54;;;6.68;63.98
61814;BME280;57055;-35.296;149.168;2022-07-23T11:38:13;95806.93;;;6.99;63.72
61814;BME280;57055;-35.296;149.168;2022-07-23T11:40:47;95811.96;;;6.75;63.89
61814;BME280;57055;-35.296;149.168;2022-07-23T11:43:17;95812.54;;;6.99;63.87
61814;BME280;57055;-35.296;149.168;2022-07-23T11:45:48;95813.14;;;6.93;64.14
61814;BME280;57055;-35.296;149.168;2022-07-23T11:48:19;95810.61;;;7.00;64.04
61814;BME280;57055;-35.296;149.168;2022-07-23T11:50:49;95808.95;;;7.41;64.36
61814;BME280;57055;-35.296;149.168;2022-07-23T11:53:27;95811.29;;;6.93;64.38
61814;BME280;57055;-35.296;149.168;2022-07-23T11:56:05;95807.94;;;6.70;64.56
61814;BME280;57055;-35.296;149.168;2022-07-23T11:58:34;95805.77;;;6.91;64.57
61814;BME280;57055;-35.296;149.168;2022-07-23T12:01:04;95804.82;;;6.93;64.46
61814;BME280;57055;-35.296;149.168;2022-07-23T12:03:34;95802.69;;;6.96;64.30
61814;BME280;57055;-35.296;149.168;2022-07-23T12:06:03;95803.32;;;7.16;64.44
61814;BME280;57055;-35.296;149.168;2022-07-23T12:08:32;95800.90;;;6.89;64.63
61814;BME280;57055;-35.296;149.168;2022-07-23T12:11:02;95801.95;;;6.98;64.32
61814;BME280;57055;-35.296;149.168;2022-07-23T12:13:32;95799.87;;;6.97;64.37
61814;BME280;57055;-35.296;149.168;2022-07-23T12:16:01;95798.34;;;7.04;64.35
61814;BME280;57055;-35.296;149.168;2022-07-23T12:18:30;95798.13;;;7.02;64.52
61814;BME280;57055;-35.296;149.168;2022-07-23T12:21:04;95798.42;;;7.01;64.70
61814;BME280;57055;-35.296;149.168;2022-07-23T12:23:34;95796.90;;;7.03;64.77
61814;BME280;57055;-35.296;149.168;2022-07-23T12:26:04;95791.07;;;6.81;64.79
61814;BME280;57055;-35.296;149.168;2022-07-23T12:28:33;95798.15;;;7.03;64.85
61814;BME280;57055;-35.296;149.168;2022-07-23T12:31:03;95800.98;;;7.24;65.08
61814;BME280;57055;-35.296;149.168;2022-07-23T12:33:34;95802.17;;;7.01;65.09
61814;BME280;57055;-35.296;149.168;2022-07-23T12:36:06;95798.10;;;7.02;65.05
61814;BME280;57055;-35.296;149.168;2022-07-23T12:38:40;95799.53;;;6.82;65.18
61814;BME280;57055;-35.296;149.168;2022-07-23T12:41:10;95797.33;;;6.91;65.76
61814;BME280;57055;-35.296;149.168;2022-07-23T12:43:41;95800.50;;;6.71;65.66
61814;BME280;57055;-35.296;149.168;2022-07-23T12:46:12;95797.48;;;6.98;65.79
61814;BME280;57055;-35.296;149.168;2022-07-23T12:48:52;95797.42;;;7.00;65.71
61814;BME280;57055;-35.296;149.168;2022-07-23T12:51:23;95795.94;;;7.02;65.70
61814;BME280;57055;-35.296;149.168;2022-07-23T12:53:55;95793.03;;;7.03;65.64
61814;BME280;57055;-35.296;149.168;2022-07-23T12:56:29;95792.00;;;7.22;65.59